Time;durP1;ratioP1;P1;durP2;ratioP2;P2;SDS_P1;SDS_P2;PMS_P1;PMS_P2;Temp;Humidity;BMP_temperature;BMP_pressure;BME280_temperature;BME280_humidity;BME280_pressure;Samples;Min_cycle;Max_cycle;Signal;HPM_P1;HPM_P2
2021/05/06 00:01:59;;;;;;;12.47;3.57;;;;;;;5.01;67.77;100346.88;6137982;28;20243;-55
2021/05/06 00:05:55;;;;;;;10.73;3.43;;;;;;;5.11;67.61;100346.06;6133790;28;20227;-55
2021/05/06 00:31:33;;;;;;;12.10;4.27;;;;;;;4.78;68.73;100350.16;6139582;28;20243;-54
2021/05/06 00:34:54;;;;;;;10.53;3.03;;;;;;;4.74;68.66;100343.25;6136176;28;20522;-53
2021/05/06 00:38:16;;;;;;;12.60;4.37;;;;;;;4.71;68.64;100343.22;6142598;28;20235;-50
2021/05/06 00:41:53;;;;;;;10.47;3.80;;;;;;;4.58;68.78;100329.38;6142447;28;20898;-50
2021/05/06 01:03:40;;;;;;;8.97;3.13;;;;;;;4.61;68.90;100336.28;6136276;28;20235;-52
2021/05/06 01:18:55;;;;;;;14.10;4.13;;;;;;;4.51;69.64;100325.88;6099175;28;20617;-55
2021/05/06 01:22:17;;;;;;;6.80;2.73;;;;;;;4.38;69.19;100329.25;6141641;28;20601;-53
2021/05/06 01:25:40;;;;;;;12.77;4.80;;;;;;;4.27;70.23;100336.00;6151717;28;20226;-57
2021/05/06 01:29:05;;;;;;;8.73;3.07;;;;;;;4.51;68.78;100331.03;6140290;28;20235;-54
2021/05/06 01:32:28;;;;;;;13.33;4.20;;;;;;;4.68;68.39;100330.31;6129484;28;20425;-52
2021/05/06 01:35:53;;;;;;;10.57;3.27;;;;;;;4.47;68.84;100318.13;6139207;28;20772;-54
2021/05/06 01:39:36;;;;;;;10.50;3.70;;;;;;;4.87;68.10;100333.91;6138351;28;20227;-50
2021/05/06 01:43:00;;;;;;;8.67;4.23;;;;;;;4.58;68.83;100331.09;6138538;28;20235;-50
2021/05/06 02:00:59;;;;;;;11.40;4.73;;;;;;;4.63;68.21;100325.09;6126313;28;20580;-52
2021/05/06 02:04:20;;;;;;;17.50;4.87;;;;;;;4.34;69.29;100335.19;6140521;28;20238;-51
2021/05/06 02:07:42;;;;;;;6.17;3.03;;;;;;;4.32;68.99;100336.88;6128933;28;20228;-55
2021/05/06 02:11:05;;;;;;;16.17;5.47;;;;;;;4.40;68.68;100327.53;6146717;28;20239;-50
2021/05/06 02:14:53;;;;;;;8.20;3.53;;;;;;;4.58;68.07;100325.94;6160799;28;20330;-54
2021/05/06 02:18:15;;;;;;;13.40;4.53;;;;;;;4.36;68.77;100338.66;6128731;28;20238;-49
2021/05/06 02:21:36;;;;;;;13.67;3.50;;;;;;;4.53;68.25;100337.06;6140386;28;20598;-52
2021/05/06 02:24:58;;;;;;;6.80;2.87;;;;;;;4.45;68.80;100335.28;6150823;28;20317;-51
2021/05/06 02:28:19;;;;;;;6.20;2.67;;;;;;;4.37;68.48;100337.81;6142225;28;20327;-49
2021/05/06 02:31:40;;;;;;;5.20;2.80;;;;;;;4.67;67.86;100347.53;6134244;28;20697;-55
2021/05/06 02:35:01;;;;;;;10.80;3.07;;;;;;;4.40;68.23;100339.53;6140002;28;20223;-53
2021/05/06 02:38:21;;;;;;;8.07;2.93;;;;;;;4.26;68.37;100329.09;6139258;28;22021;-52
2021/05/06 02:41:42;;;;;;;6.93;2.67;;;;;;;4.30;68.41;100339.47;6153235;28;20223;-53
2021/05/06 02:45:03;;;;;;;8.13;3.17;;;;;;;4.47;67.93;100349.91;6138097;28;20318;-54
2021/05/06 02:48:24;;;;;;;11.27;3.87;;;;;;;4.42;68.38;100336.16;6136755;28;20235;-50
2021/05/06 02:51:48;;;;;;;9.90;3.20;;;;;;;4.28;68.40;100351.47;6141701;28;20227;-50
2021/05/06 02:55:14;;;;;;;12.47;3.00;;;;;;;4.23;69.14;100335.13;6140812;28;20239;-53
2021/05/06 02:58:53;;;;;;;7.20;3.97;;;;;;;4.24;68.97;100347.13;6141907;28;20331;-51
2021/05/06 03:05:55;;;;;;;9.50;3.80;;;;;;;4.21;69.38;100351.44;6136448;28;20239;-52
2021/05/06 03:09:32;;;;;;;8.83;3.17;;;;;;;4.24;68.38;100356.59;6131637;28;20313;-55
2021/05/06 03:23:49;;;;;;;13.07;3.57;;;;;;;4.00;69.40;100352.06;6127226;28;20395;-51
2021/05/06 03:27:12;;;;;;;10.20;4.03;;;;;;;4.31;68.39;100353.22;6139020;28;20239;-50
2021/05/06 03:30:54;;;;;;;11.23;4.03;;;;;;;4.50;67.75;100347.38;6141276;28;20246;-52
2021/05/06 03:41:44;;;;;;;9.67;3.33;;;;;;;4.12;68.81;100357.34;6139470;28;20227;-52
2021/05/06 03:45:20;;;;;;;7.77;2.57;;;;;;;4.14;68.58;100345.31;6136527;28;20231;-49
2021/05/06 04:03:33;;;;;;;6.67;3.50;;;;;;;4.17;68.23;100350.53;6148136;28;20246;-54
2021/05/06 04:17:58;;;;;;;9.57;3.57;;;;;;;4.28;68.24;100353.19;6130965;28;20246;-52
2021/05/06 04:21:39;;;;;;;13.50;4.80;;;;;;;4.20;68.40;100355.69;6128522;28;20234;-55
2021/05/06 04:35:55;;;;;;;9.13;3.33;;;;;;;4.37;68.09;100362.72;6147306;28;20223;-52
2021/05/06 04:39:25;;;;;;;7.63;3.90;;;;;;;4.39;67.54;100369.63;6145920;28;20219;-54
2021/05/06 04:43:21;;;;;;;6.07;2.77;;;;;;;4.36;67.46;100351.53;6144522;28;20235;-51
2021/05/06 04:50:16;;;;;;;7.77;2.60;;;;;;;4.26;67.92;100366.06;6138657;28;20295;-54
2021/05/06 04:54:20;;;;;;;10.97;3.67;;;;;;;4.36;67.57;100356.69;6145652;28;20218;-54
2021/05/06 05:04:58;;;;;;;6.63;3.50;;;;;;;4.84;66.41;100357.94;6138409;28;20609;-53
2021/05/06 05:08:18;;;;;;;4.37;2.70;;;;;;;4.95;66.35;100363.19;6138848;28;20664;-53
2021/05/06 05:11:47;;;;;;;6.33;3.33;;;;;;;4.95;66.11;100362.34;6137246;28;20250;-53
2021/05/06 05:18:54;;;;;;;11.97;3.57;;;;;;;4.70;66.77;100356.97;6140987;28;20235;-55
2021/05/06 05:26:00;;;;;;;12.00;3.90;;;;;;;4.61;66.55;100364.66;6140909;28;20267;-49
2021/05/06 05:29:22;;;;;;;6.00;2.93;;;;;;;4.88;66.42;100370.00;6140000;28;20227;-50
2021/05/06 05:32:42;;;;;;;6.10;2.77;;;;;;;4.90;66.00;100355.44;6130900;28;20232;-54
2021/05/06 05:36:10;;;;;;;7.87;3.67;;;;;;;5.11;65.90;100358.97;6136702;28;20235;-53
2021/05/06 05:39:35;;;;;;;9.77;2.60;;;;;;;5.30;65.37;100371.13;6135896;28;20235;-53
2021/05/06 05:43:03;;;;;;;9.20;2.90;;;;;;;5.18;65.39;100365.06;6134731;28;20243;-56
2021/05/06 05:57:22;;;;;;;6.73;2.70;;;;;;;6.60;63.25;100362.03;6143460;28;20242;-54
2021/05/06 06:00:43;;;;;;;10.77;3.30;;;;;;;6.57;61.85;100371.50;6143745;28;20703;-56
2021/05/06 06:04:04;;;;;;;3.70;2.10;;;;;;;5.75;63.46;100368.75;6141114;28;20994;-51
2021/05/06 06:07:25;;;;;;;7.30;3.43;;;;;;;5.96;63.07;100378.31;6139248;28;20231;-53
2021/05/06 06:10:45;;;;;;;7.97;3.10;;;;;;;6.60;62.44;100374.13;6136626;28;20247;-52
2021/05/06 06:14:07;;;;;;;8.67;2.53;;;;;;;7.14;61.25;100390.47;6136303;28;20235;-61
2021/05/06 06:17:31;;;;;;;7.40;4.03;;;;;;;6.94;60.96;100372.38;6137845;28;20247;-62
2021/05/06 06:21:01;;;;;;;7.93;3.27;;;;;;;6.57;60.85;100381.88;6136874;28;20600;-55
2021/05/06 06:24:21;;;;;;;7.97;3.57;;;;;;;6.57;61.67;100382.75;6140551;28;20238;-55
2021/05/06 06:27:42;;;;;;;8.83;4.40;;;;;;;6.73;61.20;100373.25;6131244;28;20228;-51
2021/05/06 06:31:03;;;;;;;7.53;3.03;;;;;;;6.55;61.96;100391.34;6133486;28;20231;-55
2021/05/06 06:34:24;;;;;;;10.13;4.07;;;;;;;6.72;61.10;100371.50;6137128;28;20231;-56
2021/05/06 06:37:45;;;;;;;11.00;3.23;;;;;;;6.78;61.08;100371.50;6138199;28;20235;-55
2021/05/06 06:41:09;;;;;;;15.40;3.50;;;;;;;6.84;60.16;100376.69;6134994;28;20243;-57
2021/05/06 06:44:30;;;;;;;7.17;2.53;;;;;;;6.57;60.90;100387.03;6138375;28;20242;-56
2021/05/06 06:47:52;;;;;;;10.27;3.27;;;;;;;7.01;60.01;100394.78;6136398;28;20514;-55
2021/05/06 06:51:13;;;;;;;8.60;2.83;;;;;;;6.72;60.46;100389.63;6135592;28;20232;-54
2021/05/06 06:54:35;;;;;;;9.03;3.40;;;;;;;7.09;59.65;100390.47;6134300;28;20239;-59
2021/05/06 06:58:07;;;;;;;8.57;3.33;;;;;;;6.37;61.48;100400.81;6131633;28;20275;-57
2021/05/06 07:01:27;;;;;;;9.50;4.53;;;;;;;6.64;60.21;100386.19;6127245;28;20234;-56
2021/05/06 07:04:48;;;;;;;10.77;3.60;;;;;;;6.44;61.17;100399.13;6139611;28;20633;-53
2021/05/06 07:08:16;;;;;;;8.97;4.73;;;;;;;6.54;61.22;100389.63;6139225;28;20311;-53
2021/05/06 07:11:38;;;;;;;7.73;3.33;;;;;;;6.83;60.43;100384.47;6139893;28;20234;-55
2021/05/06 07:14:58;;;;;;;9.07;3.17;;;;;;;7.23;58.96;100380.09;6132437;28;20227;-55
2021/05/06 07:18:19;;;;;;;7.97;2.70;;;;;;;7.57;58.07;100395.53;6138694;28;20619;-54
2021/05/06 07:21:39;;;;;;;4.30;2.90;;;;;;;7.27;58.48;100391.31;6130825;28;20231;-57
2021/05/06 07:25:00;;;;;;;7.07;3.17;;;;;;;7.39;58.29;100382.66;6135624;28;20251;-54
2021/05/06 07:28:23;;;;;;;6.37;2.63;;;;;;;7.63;57.87;100386.88;6135942;28;20857;-55
2021/05/06 07:31:43;;;;;;;7.30;2.97;;;;;;;8.26;56.15;100392.59;6133092;28;20567;-56
2021/05/06 07:35:05;;;;;;;10.10;3.13;;;;;;;7.54;57.52;100399.84;6141283;28;20661;-56
2021/05/06 07:38:27;;;;;;;11.13;4.73;;;;;;;7.23;58.12;100366.25;6137159;28;20265;-57
2021/05/06 07:41:47;;;;;;;7.30;2.83;;;;;;;7.27;57.90;100391.31;6130845;28;20645;-58
2021/05/06 07:45:09;;;;;;;6.13;2.40;;;;;;;7.67;56.74;100384.25;6140012;28;20235;-53
2021/05/06 07:48:30;;;;;;;5.37;2.87;;;;;;;8.55;55.97;100394.16;6138505;28;20247;-55
2021/05/06 07:51:50;;;;;;;6.93;1.93;;;;;;;8.90;55.26;100381.75;6136574;28;20242;-55
2021/05/06 07:55:11;;;;;;;5.13;2.67;;;;;;;7.81;56.04;100391.09;6138368;28;20278;-52
2021/05/06 07:58:32;;;;;;;10.67;3.70;;;;;;;8.58;53.35;100398.47;6129014;28;20227;-57
2021/05/06 08:01:53;;;;;;;5.53;2.33;;;;;;;8.18;54.35;100403.88;6135587;28;20230;-57
2021/05/06 08:05:14;;;;;;;6.03;3.30;;;;;;;8.66;52.74;100394.94;6134159;28;20239;-56
2021/05/06 08:08:35;;;;;;;13.57;2.83;;;;;;;8.77;51.14;100389.66;6140229;28;20243;-56
2021/05/06 08:11:58;;;;;;;6.40;2.20;;;;;;;9.00;50.33;100391.19;6140191;28;20672;-57
2021/05/06 08:15:19;;;;;;;5.90;2.20;;;;;;;8.34;51.99;100410.72;6132748;28;20318;-57
2021/05/06 08:18:40;;;;;;;7.23;2.57;;;;;;;8.89;50.81;100403.41;6140438;28;20238;-54
2021/05/06 08:22:01;;;;;;;7.70;2.00;;;;;;;8.51;51.24;100404.56;6134299;28;20243;-54
2021/05/06 08:25:23;;;;;;;6.23;2.37;;;;;;;8.92;48.63;100403.38;6928437;23;20240;-56
2021/05/06 08:28:44;;;;;;;6.43;3.00;;;;;;;9.55;47.34;100408.81;6133817;28;20239;-57
2021/05/06 08:32:05;;;;;;;7.43;2.50;;;;;;;8.87;49.34;100419.84;6141771;28;20317;-56
2021/05/06 08:35:27;;;;;;;6.50;2.17;;;;;;;9.13;48.84;100407.50;6144627;28;20235;-57
2021/05/06 08:38:47;;;;;;;5.23;1.83;;;;;;;9.48;49.00;100414.97;6136309;28;20333;-57
2021/05/06 08:42:08;;;;;;;5.73;2.43;;;;;;;9.31;48.84;100417.75;6144565;28;20235;-56
2021/05/06 08:45:35;;;;;;;8.10;2.43;;;;;;;8.90;50.16;100428.50;6137701;28;20235;-57
2021/05/06 08:48:55;;;;;;;6.27;2.13;;;;;;;9.27;46.54;100424.69;6142334;28;20236;-56
2021/05/06 08:52:19;;;;;;;8.93;1.70;;;;;;;9.42;45.56;100415.00;6144189;28;20505;-57
2021/05/06 08:55:41;;;;;;;5.33;2.70;;;;;;;10.23;44.81;100418.34;6137310;28;20494;-56
2021/05/06 08:59:01;;;;;;;8.77;2.37;;;;;;;8.85;48.18;100428.53;6141814;28;20227;-55
2021/05/06 09:02:22;;;;;;;4.13;2.17;;;;;;;9.69;46.62;100420.78;6142250;28;20239;-57
2021/05/06 09:06:12;;;;;;;10.93;2.23;;;;;;;9.76;45.84;100440.66;6143507;28;20238;-50
2021/05/06 09:09:34;;;;;;;8.30;3.07;;;;;;;9.11;45.69;100430.94;6138401;28;20248;-57
2021/05/06 09:12:54;;;;;;;6.03;2.30;;;;;;;10.15;44.28;100433.22;6145673;28;20227;-54
2021/05/06 09:16:14;;;;;;;6.23;2.20;;;;;;;9.18;47.15;100444.72;6131364;28;20262;-52
2021/05/06 09:19:37;;;;;;;5.77;2.40;;;;;;;9.54;46.10;100429.59;6137048;28;20251;-57
2021/05/06 09:22:58;;;;;;;6.50;3.10;;;;;;;10.48;43.57;100421.50;6141223;28;20242;-53
2021/05/06 09:26:28;;;;;;;5.87;2.43;;;;;;;9.35;45.44;100431.56;6134180;28;20243;-56
2021/05/06 09:29:49;;;;;;;5.10;2.23;;;;;;;9.15;46.59;100443.00;6136243;28;20239;-54
2021/05/06 09:33:10;;;;;;;8.37;3.10;;;;;;;9.92;43.97;100436.97;6156077;28;20557;-54
2021/05/06 09:36:30;;;;;;;8.20;1.93;;;;;;;11.00;41.73;100435.44;6139774;28;20490;-56
2021/05/06 09:39:57;;;;;;;6.73;2.10;;;;;;;10.22;42.61;100420.09;6137543;28;20235;-56
2021/05/06 09:43:26;;;;;;;5.33;2.60;;;;;;;10.87;42.65;100431.31;6137564;28;20251;-56
2021/05/06 09:46:56;;;;;;;7.37;2.03;;;;;;;9.17;44.34;100440.38;6141618;28;20518;-53
2021/05/06 09:50:23;;;;;;;4.70;2.70;;;;;;;11.41;41.95;100426.03;6135406;28;20286;-57
2021/05/06 09:53:55;;;;;;;5.77;2.83;;;;;;;11.36;42.03;100422.63;6136642;28;20227;-56
2021/05/06 09:57:25;;;;;;;6.73;2.03;;;;;;;9.46;45.16;100443.56;6139301;28;20663;-57
2021/05/06 10:00:48;;;;;;;5.43;2.40;;;;;;;9.57;45.78;100427.84;6138064;28;20566;-58
2021/05/06 10:04:13;;;;;;;9.10;3.50;;;;;;;10.61;43.79;100419.56;6138846;28;20840;-58
2021/05/06 10:07:33;;;;;;;5.10;2.27;;;;;;;11.19;42.44;100425.56;6127141;28;20231;-54
2021/05/06 10:10:54;;;;;;;7.47;3.07;;;;;;;10.70;43.16;100428.97;6141243;28;20239;-58
2021/05/06 10:14:14;;;;;;;6.43;1.90;;;;;;;10.33;43.36;100438.22;6147542;28;20326;-59
2021/05/06 10:17:37;;;;;;;5.40;2.10;;;;;;;10.63;43.53;100456.88;6140145;28;20243;-60
2021/05/06 10:20:58;;;;;;;5.37;2.10;;;;;;;8.92;52.30;100482.16;6126249;28;20239;-53
2021/05/06 10:24:18;;;;;;;5.93;2.70;;;;;;;7.88;59.66;100502.56;6148041;28;20321;-52
2021/05/06 10:27:42;;;;;;;2.43;1.37;;;;;;;7.57;57.83;100534.59;6133715;28;20235;-55
2021/05/06 10:31:04;;;;;;;1.40;1.30;;;;;;;6.62;58.99;100535.41;6134901;28;20222;-58
2021/05/06 10:34:26;;;;;;;2.10;1.30;;;;;;;8.77;56.28;100516.88;6137695;28;20239;-55
2021/05/06 10:37:54;;;;;;;3.10;1.57;;;;;;;9.64;56.10;100504.91;6133047;28;20266;-53
2021/05/06 10:41:31;;;;;;;4.53;1.93;;;;;;;10.08;53.09;100499.22;6136691;28;20231;-56
2021/05/06 10:44:52;;;;;;;3.07;1.60;;;;;;;9.73;55.07;100508.28;6136586;28;20235;-56
2021/05/06 10:48:13;;;;;;;4.47;1.70;;;;;;;9.60;56.85;100498.00;6137633;28;20243;-56
2021/05/06 10:51:45;;;;;;;3.50;1.47;;;;;;;10.53;54.52;100487.41;6130717;28;20269;-54
2021/05/06 10:55:09;;;;;;;9.93;2.90;;;;;;;9.97;52.11;100478.56;6139436;28;20222;-53
2021/05/06 10:58:34;;;;;;;4.10;2.57;;;;;;;9.44;48.57;100471.31;6127041;28;20236;-54
2021/05/06 11:01:56;;;;;;;4.33;1.40;;;;;;;9.88;48.76;100466.50;6132945;28;20239;-52
2021/05/06 11:05:18;;;;;;;7.73;1.93;;;;;;;10.63;48.63;100464.69;6137482;28;20597;-55
2021/05/06 11:08:39;;;;;;;6.90;2.23;;;;;;;10.53;48.18;100470.91;6150742;28;20247;-58
2021/05/06 11:12:19;;;;;;;6.10;2.27;;;;;;;11.77;47.37;100470.56;6136426;28;20239;-55
2021/05/06 11:15:39;;;;;;;5.00;1.93;;;;;;;11.41;44.47;100470.34;6132732;28;20598;-56
2021/05/06 11:19:01;;;;;;;4.73;1.67;;;;;;;11.55;43.68;100475.31;6131805;28;20250;-58
2021/05/06 11:22:54;;;;;;;4.00;1.80;;;;;;;9.37;48.03;100477.44;6137358;28;20240;-59
2021/05/06 11:26:16;;;;;;;7.00;2.40;;;;;;;9.57;49.27;100490.22;6117092;28;20495;-60
2021/05/06 11:29:38;;;;;;;3.00;1.93;;;;;;;8.92;53.05;100513.34;6129068;28;20352;-55
2021/05/06 11:33:26;;;;;;;3.80;1.20;;;;;;;8.62;54.21;100504.84;6137132;28;20327;-57
2021/05/06 11:36:46;;;;;;;3.20;1.33;;;;;;;8.65;53.09;100511.78;6137252;28;20331;-57
2021/05/06 11:40:11;;;;;;;3.90;1.40;;;;;;;9.18;51.45;100504.47;6141524;28;20235;-57
2021/05/06 11:43:33;;;;;;;2.13;1.33;;;;;;;8.62;52.34;100504.00;6128376;28;20254;-58
2021/05/06 11:46:53;;;;;;;3.83;1.50;;;;;;;9.34;50.17;100502.59;6138985;28;20234;-56
2021/05/06 11:50:31;;;;;;;3.60;1.40;;;;;;;8.44;49.73;100505.81;6129048;28;20246;-54
2021/05/06 11:54:07;;;;;;;5.53;1.47;;;;;;;9.26;48.92;100482.72;6124595;28;20235;-54
2021/05/06 11:57:28;;;;;;;3.20;1.77;;;;;;;9.78;48.73;100480.50;6134359;28;20242;-50
2021/05/06 12:00:53;;;;;;;3.00;1.33;;;;;;;9.53;48.08;100475.53;6138450;28;20270;-56
2021/05/06 12:04:23;;;;;;;3.33;1.50;;;;;;;9.11;47.56;100477.69;6135047;28;20235;-58
2021/05/06 12:07:44;;;;;;;4.23;1.60;;;;;;;9.93;46.58;100459.50;6141434;28;20231;-57
2021/05/06 12:11:05;;;;;;;9.00;1.63;;;;;;;9.63;45.02;100451.19;6143556;28;20231;-56
2021/05/06 12:14:29;;;;;;;3.40;2.30;;;;;;;10.25;44.59;100453.03;6140054;28;20235;-58
2021/05/06 12:18:22;;;;;;;1.87;1.43;;;;;;;9.59;46.95;100439.09;6133661;28;20496;-58
2021/05/06 12:21:46;;;;;;;6.00;1.80;;;;;;;8.79;49.48;100471.00;6138571;28;20589;-57
2021/05/06 12:25:07;;;;;;;3.97;1.60;;;;;;;8.65;53.53;100510.03;6144148;28;20322;-56
2021/05/06 12:28:27;;;;;;;4.70;1.60;;;;;;;7.33;58.67;100514.75;6144134;28;20234;-54
2021/05/06 12:31:49;;;;;;;11.13;2.53;;;;;;;8.05;59.50;100512.03;6142316;28;20506;-55
2021/05/06 12:35:11;;;;;;;6.83;2.73;;;;;;;9.75;57.88;100485.72;6140702;28;20314;-56
2021/05/06 12:38:32;;;;;;;3.83;1.93;;;;;;;15.18;43.04;100468.63;6143896;28;20235;-55
2021/05/06 12:41:55;;;;;;;9.97;3.30;;;;;;;17.05;37.09;100471.31;6142848;28;20247;-59
2021/05/06 12:45:30;;;;;;;9.73;2.83;;;;;;;18.00;33.62;100457.59;6130022;28;20235;-59
2021/05/06 12:48:55;;;;;;;4.20;2.00;;;;;;;19.18;31.66;100446.66;6131479;28;20607;-55
2021/05/06 12:52:34;;;;;;;5.37;1.80;;;;;;;19.08;30.87;100446.28;6140586;28;20326;-57
2021/05/06 12:55:55;;;;;;;5.17;2.53;;;;;;;21.88;29.43;100444.81;6141635;28;20243;-57
2021/05/06 12:59:26;;;;;;;4.57;2.10;;;;;;;22.87;26.60;100432.28;6139799;28;20234;-57
2021/05/06 13:02:47;;;;;;;2.20;1.48;;;;;;;21.66;26.37;100432.91;6153021;28;20612;-58
2021/05/06 13:06:09;;;;;;;2.42;1.90;;;;;;;20.94;27.05;100429.25;6128249;28;20236;-56
2021/05/06 13:09:40;;;;;;;7.40;3.75;;;;;;;17.01;31.30;100434.66;6128666;28;20235;-55
2021/05/06 13:13:02;;;;;;;1.77;1.50;;;;;;;16.99;29.50;100405.78;6138837;28;20347;-57
2021/05/06 13:16:37;;;;;;;1.83;1.15;;;;;;;18.82;26.21;100420.31;6147227;28;20234;-56
2021/05/06 13:19:59;;;;;;;2.42;1.25;;;;;;;19.33;24.43;100416.00;6142183;28;20251;-58
2021/05/06 13:23:24;;;;;;;3.47;1.42;;;;;;;18.22;24.61;100402.09;6143019;28;20243;-58
2021/05/06 13:26:46;;;;;;;3.50;1.92;;;;;;;18.25;25.71;100402.81;6143652;28;20227;-57
2021/05/06 13:30:07;;;;;;;3.05;1.25;;;;;;;18.93;26.20;100394.28;6135235;28;20239;-53
2021/05/06 13:33:28;;;;;;;3.33;1.23;;;;;;;13.22;33.13;100417.66;6131907;28;20671;-58
2021/05/06 13:37:00;;;;;;;4.30;1.27;;;;;;;14.07;31.94;100410.94;6136348;28;20318;-58
2021/05/06 13:40:20;;;;;;;2.60;1.20;;;;;;;12.91;34.37;100401.03;6141952;28;20247;-56
2021/05/06 13:43:41;;;;;;;5.13;2.47;;;;;;;13.03;34.45;100412.91;6136614;28;20226;-56
2021/05/06 13:47:06;;;;;;;4.33;1.30;;;;;;;12.43;34.99;100423.94;6137045;28;20338;-57
2021/05/06 13:50:27;;;;;;;3.30;1.50;;;;;;;12.71;35.34;100418.94;6133356;28;20240;-56
2021/05/06 13:53:49;;;;;;;1.87;1.30;;;;;;;12.19;35.08;100421.88;6124512;28;20334;-54
2021/05/06 13:57:10;;;;;;;2.07;1.20;;;;;;;11.60;37.28;100427.38;6126309;28;20246;-52
2021/05/06 14:00:32;;;;;;;2.57;1.17;;;;;;;11.74;37.08;100429.72;6139364;28;20262;-55
2021/05/06 14:03:52;;;;;;;2.90;1.60;;;;;;;11.55;37.51;100429.22;6140777;28;20246;-57
2021/05/06 14:07:13;;;;;;;5.53;2.10;;;;;;;11.73;37.93;100433.25;6140801;28;20235;-57
2021/05/06 14:10:35;;;;;;;4.70;1.60;;;;;;;10.56;42.98;100440.47;6131021;28;20227;-57
2021/05/06 14:13:57;;;;;;;2.23;1.50;;;;;;;10.30;45.16;100448.66;6143496;28;20338;-56
2021/05/06 14:17:18;;;;;;;3.87;1.60;;;;;;;9.81;46.96;100444.91;6141896;28;20236;-54
2021/05/06 14:20:39;;;;;;;3.63;2.20;;;;;;;11.67;42.60;100437.69;6136481;28;20239;-56
2021/05/06 14:24:00;;;;;;;2.97;2.03;;;;;;;12.61;41.95;100433.97;6134155;28;20233;-57
2021/05/06 14:27:21;;;;;;;4.40;1.83;;;;;;;11.54;42.39;100426.66;6133696;28;20660;-58
2021/05/06 14:30:41;;;;;;;2.33;1.60;;;;;;;11.38;43.12;100432.16;6137680;28;20227;-55
2021/05/06 14:34:03;;;;;;;3.57;1.20;;;;;;;11.51;40.92;100427.56;6125124;28;20238;-53
2021/05/06 14:37:23;;;;;;;3.87;1.93;;;;;;;12.18;40.38;100421.91;6134984;28;20242;-57
2021/05/06 14:40:44;;;;;;;1.83;1.30;;;;;;;12.77;38.96;100419.63;6130218;28;20243;-52
2021/05/06 14:44:05;;;;;;;2.97;1.80;;;;;;;12.57;37.32;100408.81;6142348;28;20239;-55
2021/05/06 14:47:26;;;;;;;5.73;3.17;;;;;;;12.41;38.68;100400.50;6141975;28;20322;-56
2021/05/06 14:50:48;;;;;;;8.87;3.00;;;;;;;12.18;36.55;100388.81;6144302;28;20592;-55
2021/05/06 14:54:08;;;;;;;2.93;1.60;;;;;;;12.64;35.85;100401.69;6139695;28;20258;-55
2021/05/06 14:57:29;;;;;;;2.67;1.33;;;;;;;13.40;38.17;100393.69;6140602;28;20235;-53
2021/05/06 15:00:51;;;;;;;1.90;1.43;;;;;;;13.73;34.76;100391.00;6129297;28;20246;-56
2021/05/06 15:04:11;;;;;;;6.53;1.47;;;;;;;12.95;34.99;100402.66;6136504;28;20235;-56
2021/05/06 15:07:32;;;;;;;4.40;2.17;;;;;;;13.14;35.09;100397.81;6135844;28;20604;-55
2021/05/06 15:10:53;;;;;;;3.63;1.73;;;;;;;13.57;37.34;100391.44;6134113;28;20231;-56
2021/05/06 15:14:13;;;;;;;3.70;2.37;;;;;;;14.22;36.76;100386.91;6133307;28;20270;-58
2021/05/06 15:17:34;;;;;;;5.00;2.00;;;;;;;14.95;34.82;100372.38;6149734;28;20231;-54
2021/05/06 15:20:54;;;;;;;8.00;3.50;;;;;;;15.28;34.85;100370.31;6127108;28;20235;-54
2021/05/06 15:24:16;;;;;;;2.30;1.47;;;;;;;14.79;33.86;100368.53;6143224;28;20234;-54
2021/05/06 15:27:36;;;;;;;4.70;1.57;;;;;;;14.73;31.94;100377.47;6147004;28;20676;-55
2021/05/06 15:30:58;;;;;;;4.30;2.13;;;;;;;15.04;34.13;100379.91;6134725;28;20261;-58
2021/05/06 15:34:18;;;;;;;3.67;1.97;;;;;;;14.72;33.55;100378.38;6138105;28;20520;-50
2021/05/06 15:37:39;;;;;;;7.17;1.40;;;;;;;14.21;34.49;100385.22;6134904;28;20235;-53
2021/05/06 15:41:00;;;;;;;6.50;1.40;;;;;;;13.31;34.68;100383.47;6137041;28;20329;-55
2021/05/06 15:44:20;;;;;;;2.47;1.60;;;;;;;12.55;35.75;100387.09;6134744;28;20254;-51
2021/05/06 15:47:41;;;;;;;4.90;2.00;;;;;;;12.49;35.62;100382.03;6150584;28;20242;-53
2021/05/06 15:51:02;;;;;;;4.37;2.20;;;;;;;11.70;38.10;100390.69;6130148;28;20238;-54
2021/05/06 15:54:23;;;;;;;9.13;3.27;;;;;;;12.26;36.65;100383.41;6129079;28;20493;-56
2021/05/06 15:57:44;;;;;;;1.63;1.03;;;;;;;12.77;35.65;100382.22;6129493;28;20520;-55
2021/05/06 16:01:06;;;;;;;3.43;1.40;;;;;;;11.92;37.22;100396.34;6136281;28;20234;-51
2021/05/06 16:04:28;;;;;;;5.10;2.27;;;;;;;12.29;37.38;100395.53;6141997;28;20231;-56
2021/05/06 16:07:50;;;;;;;4.17;1.67;;;;;;;12.45;37.21;100401.28;6133108;28;20231;-51
2021/05/06 16:11:11;;;;;;;3.60;1.67;;;;;;;12.41;36.31;100396.13;6127706;28;20235;-57
2021/05/06 16:14:32;;;;;;;5.20;1.80;;;;;;;11.69;37.83;100405.50;6136004;28;20231;-55
2021/05/06 16:17:53;;;;;;;3.70;1.57;;;;;;;11.59;37.60;100397.00;6141632;28;20258;-54
2021/05/06 16:21:14;;;;;;;5.53;2.30;;;;;;;11.91;37.62;100408.53;6138533;28;20326;-55
2021/05/06 16:24:35;;;;;;;4.37;1.90;;;;;;;11.48;38.08;100413.75;6138529;28;20270;-53
2021/05/06 16:27:56;;;;;;;5.70;1.70;;;;;;;10.57;41.54;100420.50;6132848;28;20231;-52
2021/05/06 16:31:17;;;;;;;4.90;2.03;;;;;;;9.29;47.28;100429.88;6141884;28;20417;-51
2021/05/06 16:34:40;;;;;;;3.73;1.93;;;;;;;9.60;48.04;100427.81;6121981;28;20227;-57
2021/05/06 16:38:03;;;;;;;4.03;2.43;;;;;;;9.01;50.91;100431.88;6140331;28;20243;-53
2021/05/06 16:41:30;;;;;;;5.27;3.27;;;;;;;9.31;51.19;100437.69;6135988;28;20235;-52
2021/05/06 16:44:52;;;;;;;5.20;3.43;;;;;;;9.34;50.98;100432.44;6133676;28;20250;-52
2021/05/06 16:48:14;;;;;;;4.97;2.00;;;;;;;8.51;53.60;100452.16;6140791;28;20314;-55
2021/05/06 16:51:35;;;;;;;4.03;1.90;;;;;;;9.53;52.56;100439.16;6140052;28;20227;-56
2021/05/06 16:54:55;;;;;;;2.07;1.50;;;;;;;9.79;50.87;100451.88;6141097;28;20246;-56
2021/05/06 16:58:16;;;;;;;3.87;2.07;;;;;;;9.24;50.10;100437.72;6139611;28;20227;-52
2021/05/06 17:01:39;;;;;;;2.73;1.37;;;;;;;9.11;50.07;100427.44;6127988;28;20446;-52
2021/05/06 17:05:00;;;;;;;3.33;1.73;;;;;;;9.18;49.16;100435.16;6138182;28;20767;-52
2021/05/06 17:08:22;;;;;;;4.10;1.93;;;;;;;10.79;45.12;100424.47;6142865;28;20238;-52
2021/05/06 17:11:43;;;;;;;2.57;1.20;;;;;;;11.03;43.95;100417.13;6140646;28;20698;-55
2021/05/06 17:15:05;;;;;;;2.87;2.13;;;;;;;10.30;45.39;100427.84;6139898;28;20597;-54
2021/05/06 17:18:25;;;;;;;1.40;1.30;;;;;;;10.75;44.22;100430.63;6133502;28;20565;-55
2021/05/06 17:21:46;;;;;;;1.63;1.27;;;;;;;11.26;43.61;100427.16;6129364;28;20333;-54
2021/05/06 17:25:09;;;;;;;3.40;1.27;;;;;;;11.55;42.99;100423.16;6139164;28;20621;-56
2021/05/06 17:28:30;;;;;;;4.40;1.37;;;;;;;11.46;42.77;100418.09;6135161;28;20235;-53
2021/05/06 17:31:50;;;;;;;6.27;1.60;;;;;;;11.59;42.48;100415.25;6145031;28;20604;-53
2021/05/06 17:35:12;;;;;;;2.20;1.70;;;;;;;11.14;42.09;100409.13;6142586;28;20232;-55
2021/05/06 17:38:34;;;;;;;3.27;1.80;;;;;;;10.30;44.01;100417.44;6141222;28;20227;-56
2021/05/06 17:41:55;;;;;;;3.13;1.50;;;;;;;11.34;42.89;100417.47;6150942;28;20254;-55
2021/05/06 17:45:16;;;;;;;2.90;1.67;;;;;;;11.08;41.97;100417.94;6139857;28;20235;-56
2021/05/06 17:48:36;;;;;;;3.37;1.30;;;;;;;11.13;42.69;100416.09;6138529;28;20315;-57
2021/05/06 17:51:57;;;;;;;2.23;1.63;;;;;;;11.56;41.61;100417.91;6144111;28;20255;-55
2021/05/06 17:55:19;;;;;;;4.77;1.47;;;;;;;11.30;42.51;100417.53;6138705;28;20231;-56
2021/05/06 17:58:42;;;;;;;1.80;1.33;;;;;;;11.11;42.36;100417.88;6138680;28;20329;-56
2021/05/06 18:02:03;;;;;;;3.07;2.27;;;;;;;11.06;42.89;100416.25;6141947;28;20238;-52
2021/05/06 18:05:24;;;;;;;4.23;1.40;;;;;;;10.75;43.63;100417.59;6129456;28;20243;-56
2021/05/06 18:08:47;;;;;;;2.73;1.70;;;;;;;10.75;43.75;100411.53;6133917;28;20326;-56
2021/05/06 18:12:11;;;;;;;2.60;2.07;;;;;;;10.84;43.57;100414.00;6129867;28;20383;-55
2021/05/06 18:15:32;;;;;;;2.37;1.70;;;;;;;10.40;44.40;100423.34;6134685;28;20314;-52
2021/05/06 18:18:54;;;;;;;5.27;2.77;;;;;;;10.48;44.71;100425.84;6138808;28;20243;-55
2021/05/06 18:22:15;;;;;;;2.87;1.40;;;;;;;10.71;44.08;100423.75;6139120;28;20231;-53
2021/05/06 18:25:36;;;;;;;3.70;1.73;;;;;;;10.58;43.69;100417.00;6131475;28;20235;-51
2021/05/06 18:28:57;;;;;;;3.97;1.93;;;;;;;10.75;44.71;100415.00;6138807;28;20250;-55